createdAt,value
2019-04-29T00:00:47.883Z,11.70
2019-04-29T00:03:18.620Z,11.70
2019-04-29T00:05:49.052Z,11.70
2019-04-29T00:08:19.514Z,11.70
2019-04-29T00:10:50.113Z,11.70
2019-04-29T00:13:20.956Z,11.70
2019-04-29T00:16:10.312Z,11.80
2019-04-29T00:18:53.947Z,11.80
2019-04-29T00:21:26.013Z,11.80
2019-04-29T00:24:03.572Z,11.70
2019-04-29T00:26:29.086Z,11.70
2019-04-29T00:28:59.551Z,11.70
2019-04-29T00:31:30.066Z,11.80
2019-04-29T00:34:00.505Z,11.70
2019-04-29T00:36:35.686Z,11.70
2019-04-29T00:39:41.806Z,11.70
2019-04-29T00:42:34.380Z,11.70
2019-04-29T00:45:05.749Z,11.70
2019-04-29T00:47:36.230Z,11.70
2019-04-29T00:50:07.763Z,11.60
2019-04-29T00:52:38.302Z,11.60
2019-04-29T00:55:12.325Z,11.50
2019-04-29T00:57:42.758Z,11.50
2019-04-29T01:00:17.013Z,11.40
2019-04-29T01:02:48.829Z,11.40
2019-04-29T01:05:19.243Z,11.30
2019-04-29T01:07:49.679Z,11.30
2019-04-29T01:10:20.251Z,11.30
2019-04-29T01:12:50.785Z,11.30
2019-04-29T01:15:21.370Z,11.30
2019-04-29T01:17:51.904Z,11.20
2019-04-29T01:20:22.326Z,11.30
2019-04-29T01:22:52.754Z,11.30
2019-04-29T01:25:23.181Z,11.30
2019-04-29T01:28:18.388Z,11.30
2019-04-29T01:31:09.603Z,11.40
2019-04-29T01:33:41.431Z,11.30
2019-04-29T01:36:36.672Z,11.30
2019-04-29T01:39:12.351Z,11.30
2019-04-29T01:42:01.999Z,11.30
2019-04-29T01:44:34.498Z,11.20
2019-04-29T01:47:05.085Z,11.20
2019-04-29T01:49:35.536Z,11.20
2019-04-29T01:52:06.134Z,11.20
2019-04-29T01:54:36.596Z,11.10
2019-04-29T01:57:07.199Z,11.10
2019-04-29T01:59:37.650Z,11.10
2019-04-29T02:02:08.181Z,11.00
2019-04-29T02:04:38.607Z,11.00
2019-04-29T02:07:09.034Z,11.00
2019-04-29T02:09:48.435Z,10.90
2019-04-29T02:12:19.210Z,10.90
2019-04-29T02:14:51.393Z,10.90
2019-04-29T02:17:21.803Z,10.80
2019-04-29T02:19:53.252Z,10.80
2019-04-29T02:22:41.246Z,10.70
2019-04-29T02:25:16.640Z,10.70
2019-04-29T02:27:47.061Z,10.70
2019-04-29T02:30:41.267Z,10.70
2019-04-29T02:33:11.676Z,10.70
2019-04-29T02:35:42.617Z,10.70
2019-04-29T02:38:21.025Z,10.70
2019-04-29T02:41:19.786Z,10.70
2019-04-29T02:43:52.139Z,10.60
2019-04-29T02:46:22.616Z,10.70
2019-04-29T02:48:53.043Z,10.70
2019-04-29T02:51:41.598Z,10.60
2019-04-29T02:54:12.126Z,10.60
2019-04-29T02:56:44.237Z,10.60
2019-04-29T02:59:16.511Z,10.60
2019-04-29T03:02:01.122Z,10.60
2019-04-29T03:04:35.187Z,10.60
2019-04-29T03:07:05.665Z,10.60
2019-04-29T03:09:45.820Z,10.60
2019-04-29T03:12:16.521Z,10.50
2019-04-29T03:14:47.254Z,10.60
2019-04-29T03:17:18.903Z,10.60
2019-04-29T03:20:07.494Z,10.60
2019-04-29T03:22:38.784Z,10.50
2019-04-29T03:25:09.580Z,10.50
2019-04-29T03:27:40.007Z,10.50
2019-04-29T03:30:11.865Z,10.40
2019-04-29T03:32:42.295Z,10.40
2019-04-29T03:35:13.032Z,10.40
2019-04-29T03:37:43.474Z,10.30
2019-04-29T03:40:14.088Z,10.30
2019-04-29T03:42:44.516Z,10.30
2019-04-29T03:45:15.170Z,10.30
2019-04-29T03:47:45.672Z,10.30
2019-04-29T03:50:16.307Z,10.20
2019-04-29T03:52:46.740Z,10.30
2019-04-29T03:55:17.185Z,10.30
2019-04-29T03:57:48.405Z,10.20
2019-04-29T04:00:20.953Z,10.20
2019-04-29T04:03:10.352Z,10.10
2019-04-29T04:06:02.798Z,10.10
2019-04-29T04:08:36.192Z,10.10
2019-04-29T04:11:06.724Z,10.10
2019-04-29T04:13:37.366Z,10.10
2019-04-29T04:16:10.547Z,10.00
2019-04-29T04:18:40.976Z,10.00
2019-04-29T04:21:11.507Z,10.00
2019-04-29T04:23:42.040Z,10.00
2019-04-29T04:26:12.460Z,10.00
2019-04-29T04:28:42.888Z,9.90
2019-04-29T04:31:13.315Z,10.00
2019-04-29T04:33:43.739Z,9.90
2019-04-29T04:36:14.473Z,9.90
2019-04-29T04:38:44.904Z,9.90
2019-04-29T04:41:15.432Z,10.00
2019-04-29T04:43:45.959Z,10.00
2019-04-29T04:46:16.400Z,10.00
2019-04-29T04:48:46.859Z,10.00
2019-04-29T04:51:17.356Z,10.00
2019-04-29T04:53:47.771Z,9.90
2019-04-29T04:56:18.197Z,9.90
2019-04-29T04:58:48.790Z,9.90
2019-04-29T05:01:19.258Z,9.90
2019-04-29T05:03:49.691Z,9.90
2019-04-29T05:06:20.314Z,9.90
2019-04-29T05:08:50.945Z,9.90
2019-04-29T05:11:21.578Z,9.90
2019-04-29T05:13:52.311Z,10.00
2019-04-29T05:16:22.844Z,10.00
2019-04-29T05:18:53.418Z,10.00
2019-04-29T05:21:23.912Z,10.00
2019-04-29T05:23:54.327Z,10.00
2019-04-29T05:26:24.755Z,10.00
2019-04-29T05:28:55.205Z,10.00
2019-04-29T05:31:25.943Z,9.90
2019-04-29T05:33:56.342Z,9.90
2019-04-29T05:36:45.815Z,9.80
2019-04-29T05:39:25.562Z,9.70
2019-04-29T05:41:56.091Z,9.80
2019-04-29T05:44:35.322Z,9.80
2019-04-29T05:47:08.617Z,9.80
2019-04-29T05:49:46.622Z,9.90
2019-04-29T05:52:49.827Z,9.90
2019-04-29T05:55:20.552Z,10.00
2019-04-29T05:57:51.081Z,10.10
2019-04-29T06:00:43.733Z,10.20
2019-04-29T06:03:14.160Z,10.30
2019-04-29T06:05:44.789Z,10.40
2019-04-29T06:08:15.315Z,10.50
2019-04-29T06:10:46.770Z,10.60
2019-04-29T06:13:17.199Z,10.70
2019-04-29T06:15:47.835Z,10.70
2019-04-29T06:18:22.101Z,10.90
2019-04-29T06:20:50.683Z,11.00
2019-04-29T06:23:23.108Z,11.30
2019-04-29T06:25:53.234Z,11.50
2019-04-29T06:28:26.569Z,11.60
2019-04-29T06:30:55.816Z,11.80
2019-04-29T06:33:29.038Z,11.90
2019-04-29T06:35:58.306Z,12.00
2019-04-29T06:38:28.738Z,12.10
2019-04-29T06:40:59.160Z,12.00
2019-04-29T06:43:30.704Z,12.10
2019-04-29T06:46:01.234Z,12.20
2019-04-29T06:48:31.839Z,12.10
2019-04-29T06:51:02.303Z,12.10
2019-04-29T06:53:32.784Z,12.20
2019-04-29T06:56:03.261Z,12.30
2019-04-29T06:58:38.471Z,12.30
2019-04-29T07:01:09.040Z,12.30
2019-04-29T07:03:39.455Z,12.40
2019-04-29T07:06:10.189Z,12.60
2019-04-29T07:08:41.848Z,12.80
2019-04-29T07:11:12.319Z,13.00
2019-04-29T07:13:42.804Z,13.40
2019-04-29T07:16:16.690Z,13.70
2019-04-29T07:18:49.353Z,13.70
2019-04-29T07:21:17.769Z,13.80
2019-04-29T07:23:48.363Z,14.00
2019-04-29T07:26:18.831Z,14.50
2019-04-29T07:28:53.322Z,14.70
2019-04-29T07:31:21.347Z,15.00
2019-04-29T07:33:53.683Z,15.30
2019-04-29T07:36:24.033Z,15.00
2019-04-29T07:38:56.644Z,15.00
2019-04-29T07:41:27.638Z,14.50
2019-04-29T07:43:58.070Z,14.40
2019-04-29T07:46:55.664Z,14.50
2019-04-29T07:49:12.730Z,14.70
2019-04-29T07:51:41.121Z,15.00
2019-04-29T07:54:15.976Z,15.30
2019-04-29T07:56:43.820Z,15.50
2019-04-29T07:59:14.659Z,15.50
2019-04-29T08:01:45.081Z,15.50
2019-04-29T08:04:15.610Z,15.40
2019-04-29T08:06:46.754Z,15.50
2019-04-29T08:09:17.596Z,15.40
2019-04-29T08:11:48.494Z,15.50
2019-04-29T08:14:21.669Z,15.50
2019-04-29T08:16:52.366Z,15.60
2019-04-29T08:19:24.622Z,15.70
2019-04-29T08:21:55.050Z,15.60
2019-04-29T08:24:25.527Z,15.60
2019-04-29T08:26:56.006Z,15.30
2019-04-29T08:29:26.446Z,15.30
2019-04-29T08:32:01.891Z,15.10
2019-04-29T08:34:29.137Z,14.90
2019-04-29T08:36:59.558Z,14.80
2019-04-29T08:39:31.202Z,15.00
2019-04-29T08:42:08.549Z,14.80
2019-04-29T08:45:01.731Z,14.80
2019-04-29T08:47:34.359Z,15.00
2019-04-29T08:50:05.083Z,15.30
2019-04-29T08:52:35.605Z,15.30
2019-04-29T08:55:06.287Z,15.40
2019-04-29T08:57:37.548Z,15.50
2019-04-29T09:00:09.136Z,15.20
2019-04-29T09:02:41.393Z,15.20
2019-04-29T09:05:13.251Z,15.30
2019-04-29T09:07:43.798Z,15.40
2019-04-29T09:10:14.523Z,15.60
2019-04-29T09:12:44.951Z,15.40
2019-04-29T09:15:15.796Z,15.10
2019-04-29T09:17:46.390Z,15.10
2019-04-29T09:20:18.667Z,15.00
2019-04-29T09:22:56.908Z,15.20
2019-04-29T09:25:45.264Z,15.20
2019-04-29T09:28:18.314Z,15.00
2019-04-29T09:30:48.466Z,15.00
2019-04-29T09:33:18.891Z,15.00
2019-04-29T09:35:49.326Z,15.40
2019-04-29T09:38:19.746Z,15.80
2019-04-29T09:40:59.799Z,15.90
2019-04-29T09:43:59.090Z,15.90
2019-04-29T09:46:34.522Z,16.10
2019-04-29T09:49:02.519Z,16.40
2019-04-29T09:51:33.972Z,16.90
2019-04-29T09:54:04.600Z,17.10
2019-04-29T09:56:35.083Z,17.40
2019-04-29T09:59:42.829Z,17.60
2019-04-29T10:02:47.868Z,17.40
2019-04-29T10:05:37.654Z,17.90
2019-04-29T10:08:09.418Z,18.20
2019-04-29T10:10:39.937Z,18.20
2019-04-29T10:13:10.363Z,18.40
2019-04-29T10:16:00.437Z,18.30
2019-04-29T10:18:40.401Z,18.30
2019-04-29T10:21:16.550Z,18.70
2019-04-29T10:23:45.452Z,18.60
2019-04-29T10:26:15.883Z,18.40
2019-04-29T10:28:54.807Z,18.60
2019-04-29T10:31:25.337Z,18.70
2019-04-29T10:33:56.532Z,18.70
2019-04-29T10:36:59.574Z,19.00
2019-04-29T10:42:33.306Z,18.90
2019-04-29T10:45:22.671Z,20.00
2019-04-29T10:48:17.981Z,20.30
2019-04-29T10:50:52.201Z,20.10
2019-04-29T10:53:21.801Z,20.10
2019-04-29T10:55:52.222Z,20.20
2019-04-29T10:58:29.869Z,19.90
2019-04-29T11:01:39.677Z,19.70
2019-04-29T11:04:10.291Z,19.60
2019-04-29T11:06:43.799Z,20.00
2019-04-29T11:09:46.277Z,20.20
2019-04-29T11:12:19.217Z,19.80
2019-04-29T11:14:49.700Z,20.00
2019-04-29T11:17:24.633Z,20.20
2019-04-29T11:19:57.314Z,20.20
2019-04-29T11:22:34.000Z,20.10
2019-04-29T11:25:25.609Z,20.50
2019-04-29T11:27:56.548Z,21.00
2019-04-29T11:30:28.897Z,21.60
2019-04-29T11:33:07.437Z,22.80
2019-04-29T11:35:46.261Z,23.30
2019-04-29T11:38:17.011Z,24.00
2019-04-29T11:40:49.370Z,24.10
2019-04-29T11:43:19.887Z,23.90
2019-04-29T11:45:50.523Z,23.80
2019-04-29T11:48:21.981Z,25.20
2019-04-29T11:51:00.599Z,26.10
2019-04-29T11:53:31.026Z,25.80
2019-04-29T11:56:01.454Z,24.80
2019-04-29T11:58:41.710Z,25.90
2019-04-29T12:01:39.198Z,27.90
2019-04-29T12:04:12.058Z,28.70
2019-04-29T12:06:42.587Z,28.40
2019-04-29T12:09:13.422Z,28.10
2019-04-29T12:11:43.850Z,28.10
2019-04-29T12:14:23.287Z,29.20
2019-04-29T12:17:03.878Z,30.60
2019-04-29T12:19:35.978Z,30.30
2019-04-29T12:22:09.000Z,29.40
2019-04-29T12:24:38.716Z,27.80
2019-04-29T12:27:10.167Z,26.70
2019-04-29T12:29:40.593Z,26.60
2019-04-29T12:32:28.535Z,27.20
2019-04-29T12:35:06.556Z,28.70
2019-04-29T12:37:54.577Z,27.40
2019-04-29T12:40:55.137Z,25.60
2019-04-29T12:43:43.363Z,24.40
2019-04-29T12:46:25.360Z,24.20
2019-04-29T12:48:57.007Z,25.30
2019-04-29T12:51:28.464Z,26.40
2019-04-29T12:53:58.888Z,27.50
2019-04-29T12:56:37.710Z,27.70
2019-04-29T12:59:08.546Z,27.70
2019-04-29T13:02:07.235Z,28.60
2019-04-29T13:05:02.230Z,28.50
2019-04-29T13:07:46.803Z,27.90
2019-04-29T13:10:37.832Z,27.10
2019-04-29T13:13:09.772Z,26.20
2019-04-29T13:15:59.348Z,25.90
2019-04-29T13:18:53.774Z,26.30
2019-04-29T13:21:24.618Z,25.80
2019-04-29T13:24:12.486Z,24.90
2019-04-29T13:26:29.077Z,24.20
2019-04-29T13:29:01.512Z,23.70
2019-04-29T13:31:38.721Z,23.60
2019-04-29T13:34:22.857Z,24.20
2019-04-29T13:36:38.703Z,23.80
2019-04-29T13:39:10.359Z,22.40
2019-04-29T13:41:56.114Z,22.60
2019-04-29T13:44:13.096Z,24.70
2019-04-29T13:47:02.840Z,26.10
2019-04-29T13:49:40.662Z,25.80
2019-04-29T13:52:11.372Z,24.90
2019-04-29T13:54:42.645Z,26.10
2019-04-29T13:57:16.227Z,25.90
2019-04-29T14:00:04.773Z,25.30
2019-04-29T14:02:41.970Z,25.80
2019-04-29T14:05:13.499Z,28.40
2019-04-29T14:07:43.939Z,30.20
2019-04-29T14:10:15.341Z,30.00
2019-04-29T14:12:49.030Z,31.20
2019-04-29T14:15:18.784Z,33.20
2019-04-29T14:17:49.239Z,32.60
2019-04-29T14:20:19.861Z,33.50
2019-04-29T14:22:50.800Z,34.00
2019-04-29T14:25:21.364Z,32.80
2019-04-29T14:27:51.965Z,32.10
2019-04-29T14:30:37.274Z,32.90
2019-04-29T14:33:01.713Z,32.50
2019-04-29T14:35:49.948Z,31.20
2019-04-29T14:38:23.862Z,30.80
2019-04-29T14:40:52.670Z,30.40
2019-04-29T14:43:41.014Z,30.70
2019-04-29T14:46:30.488Z,31.40
2019-04-29T14:49:14.338Z,31.30
2019-04-29T14:51:45.338Z,30.40
2019-04-29T14:54:15.840Z,30.80
2019-04-29T14:56:53.063Z,30.90
2019-04-29T14:59:31.543Z,31.10
2019-04-29T15:02:16.115Z,30.60
2019-04-29T15:04:54.551Z,30.60
2019-04-29T15:07:26.698Z,30.80
2019-04-29T15:09:58.336Z,30.10
2019-04-29T15:13:11.886Z,30.20
2019-04-29T15:16:04.634Z,29.60
2019-04-29T15:18:55.059Z,29.40
2019-04-29T15:21:52.524Z,30.10
2019-04-29T15:24:27.236Z,31.40
2019-04-29T15:26:56.470Z,31.50
2019-04-29T15:29:27.918Z,31.20
2019-04-29T15:32:13.737Z,29.60
2019-04-29T15:34:48.181Z,29.30
2019-04-29T15:37:18.803Z,28.40
2019-04-29T15:39:49.286Z,28.50
2019-04-29T15:42:19.822Z,28.50
2019-04-29T15:45:04.546Z,28.20
2019-04-29T15:47:41.677Z,28.70
2019-04-29T15:50:18.495Z,28.80
2019-04-29T15:52:47.708Z,29.00
2019-04-29T15:55:19.497Z,29.60
2019-04-29T15:57:51.887Z,29.10
2019-04-29T16:00:24.203Z,28.70
2019-04-29T16:02:55.407Z,27.70
2019-04-29T16:05:54.145Z,26.70
2019-04-29T16:08:59.030Z,25.30
2019-04-29T16:11:52.480Z,23.30
2019-04-29T16:14:24.159Z,21.80
2019-04-29T16:17:03.279Z,21.00
2019-04-29T16:19:33.797Z,20.40
2019-04-29T16:22:38.562Z,20.10
2019-04-29T16:25:25.006Z,19.70
2019-04-29T16:28:06.502Z,18.90
2019-04-29T16:30:49.630Z,18.50
2019-04-29T16:33:20.071Z,18.30
2019-04-29T16:35:50.499Z,17.90
2019-04-29T16:38:21.170Z,17.70
2019-04-29T16:40:59.391Z,17.40
2019-04-29T16:44:33.693Z,17.30
2019-04-29T16:46:41.460Z,17.10
2019-04-29T16:49:19.556Z,17.20
2019-04-29T16:51:55.946Z,17.10
2019-04-29T16:54:28.394Z,16.90
2019-04-29T16:56:58.956Z,16.90
2019-04-29T16:59:29.466Z,16.60
2019-04-29T17:02:00.096Z,16.30
2019-04-29T17:04:30.523Z,16.20
2019-04-29T17:07:12.473Z,16.10
2019-04-29T17:10:00.869Z,16.10
2019-04-29T17:12:38.029Z,16.10
2019-04-29T17:15:23.537Z,16.00
2019-04-29T17:17:43.826Z,15.70
2019-04-29T17:20:14.762Z,15.50
2019-04-29T17:22:45.406Z,15.40
2019-04-29T17:25:16.228Z,15.30
2019-04-29T17:28:24.144Z,15.20
2019-04-29T17:31:14.557Z,15.10
2019-04-29T17:33:57.998Z,15.00
2019-04-29T17:36:28.698Z,15.00
2019-04-29T17:38:59.124Z,14.90
2019-04-29T17:41:30.831Z,14.90
2019-04-29T17:44:29.471Z,14.70
2019-04-29T17:47:13.293Z,14.70
2019-04-29T17:49:49.584Z,14.70
2019-04-29T17:52:28.709Z,14.70
2019-04-29T17:55:08.517Z,14.70
2019-04-29T17:57:43.795Z,14.50
2019-04-29T18:00:42.240Z,14.40
2019-04-29T18:03:41.309Z,14.20
2019-04-29T18:06:12.436Z,14.10
2019-04-29T18:08:47.463Z,14.00
2019-04-29T18:11:18.026Z,13.90
2019-04-29T18:13:48.514Z,13.80
2019-04-29T18:16:25.908Z,13.60
2019-04-29T18:19:01.962Z,13.60
2019-04-29T18:21:50.514Z,13.50
2019-04-29T18:24:37.473Z,13.40
2019-04-29T18:27:11.668Z,13.40
2019-04-29T18:29:43.123Z,13.30
2019-04-29T18:32:15.257Z,13.20
2019-04-29T18:34:45.791Z,13.00
2019-04-29T18:37:16.746Z,13.00
2019-04-29T18:39:47.260Z,12.80
2019-04-29T18:42:17.735Z,12.70
2019-04-29T18:44:55.116Z,12.60
2019-04-29T18:47:23.112Z,12.60
2019-04-29T18:49:56.467Z,12.50
2019-04-29T18:52:28.514Z,12.40
2019-04-29T18:54:59.044Z,12.30
2019-04-29T18:57:30.956Z,12.20
2019-04-29T19:00:04.731Z,12.20
2019-04-29T19:02:44.554Z,12.10
2019-04-29T19:05:20.284Z,12.00
2019-04-29T19:07:55.133Z,11.90
2019-04-29T19:10:34.189Z,11.80
2019-04-29T19:12:59.753Z,11.70
2019-04-29T19:15:29.016Z,11.60
2019-04-29T19:18:01.907Z,11.60
2019-04-29T19:20:31.664Z,11.50
2019-04-29T19:23:08.294Z,11.40
2019-04-29T19:25:35.395Z,11.30
2019-04-29T19:28:12.596Z,11.30
2019-04-29T19:30:38.312Z,11.20
2019-04-29T19:33:09.012Z,11.10
2019-04-29T19:35:39.837Z,11.00
2019-04-29T19:38:12.476Z,10.90
2019-04-29T19:40:43.485Z,10.90
2019-04-29T19:43:17.367Z,10.90
2019-04-29T19:45:49.158Z,10.80
2019-04-29T19:48:18.145Z,10.70
2019-04-29T19:50:50.099Z,10.70
2019-04-29T19:53:20.744Z,10.60
2019-04-29T19:56:01.503Z,10.50
2019-04-29T19:58:29.191Z,10.50
2019-04-29T20:01:00.087Z,10.50
2019-04-29T20:03:41.730Z,10.40
2019-04-29T20:06:21.688Z,10.40
2019-04-29T20:08:53.957Z,10.40
2019-04-29T20:11:18.867Z,10.30
2019-04-29T20:14:03.821Z,10.30
2019-04-29T20:16:43.386Z,10.30
2019-04-29T20:19:21.078Z,10.20
2019-04-29T20:21:50.203Z,10.10
2019-04-29T20:24:23.489Z,10.10
2019-04-29T20:26:53.212Z,10.10
2019-04-29T20:29:27.338Z,10.10
2019-04-29T20:31:56.618Z,10.00
2019-04-29T20:34:28.251Z,10.00
2019-04-29T20:36:59.075Z,9.90
2019-04-29T20:39:30.642Z,9.90
2019-04-29T20:42:05.524Z,9.90
2019-04-29T20:44:36.528Z,9.90
2019-04-29T20:47:19.414Z,9.80
2019-04-29T20:49:39.515Z,9.80
2019-04-29T20:52:22.772Z,9.70
2019-04-29T20:55:00.977Z,9.70
2019-04-29T20:57:27.521Z,9.60
2019-04-29T20:59:58.679Z,9.60
2019-04-29T21:02:33.835Z,9.60
2019-04-29T21:05:01.480Z,9.50
2019-04-29T21:07:32.007Z,9.50
2019-04-29T21:10:06.617Z,9.50
2019-04-29T21:13:10.392Z,9.50
2019-04-29T21:15:59.400Z,9.40
2019-04-29T21:18:29.009Z,9.40
2019-04-29T21:20:59.598Z,9.30
2019-04-29T21:23:35.442Z,9.30
2019-04-29T21:26:05.290Z,9.30
2019-04-29T21:28:41.176Z,9.30
2019-04-29T21:31:11.602Z,9.20
2019-04-29T21:33:42.655Z,9.20
2019-04-29T21:36:26.622Z,9.10
2019-04-29T21:39:07.448Z,9.10
2019-04-29T21:41:59.892Z,9.10
2019-04-29T21:44:30.411Z,9.10
2019-04-29T21:47:06.632Z,9.10
2019-04-29T21:50:11.766Z,9.10
2019-04-29T21:52:44.721Z,9.10
2019-04-29T21:55:16.155Z,9.10
2019-04-29T21:57:47.219Z,9.10
2019-04-29T22:00:23.998Z,9.10
2019-04-29T22:02:50.767Z,9.10
2019-04-29T22:05:21.456Z,9.00
2019-04-29T22:07:51.924Z,9.00
2019-04-29T22:10:25.219Z,9.00
2019-04-29T22:15:32.713Z,8.90
2019-04-29T22:18:01.289Z,8.90
2019-04-29T22:30:54.723Z,8.80
2019-04-29T22:33:25.058Z,8.80
2019-04-29T22:35:55.561Z,8.70
2019-04-29T22:38:26.088Z,8.70
2019-04-29T22:40:59.378Z,8.70
2019-04-29T22:43:50.590Z,8.60
2019-04-29T22:46:21.020Z,8.60
2019-04-29T22:48:51.513Z,8.60
2019-04-29T22:51:21.976Z,8.60
2019-04-29T22:53:52.404Z,8.50
2019-04-29T22:56:22.829Z,8.50
2019-04-29T22:58:53.258Z,8.50
2019-04-29T23:01:23.691Z,8.50
2019-04-29T23:03:55.420Z,8.40
2019-04-29T23:06:26.044Z,8.40
2019-04-29T23:08:56.502Z,8.40
2019-04-29T23:11:27.122Z,8.30
2019-04-29T23:14:01.609Z,8.30
2019-04-29T23:16:31.512Z,8.30
2019-04-29T23:19:01.898Z,8.30
2019-04-29T23:21:51.370Z,8.30
2019-04-29T23:24:40.845Z,8.30
2019-04-29T23:27:15.421Z,8.30
2019-04-29T23:29:44.666Z,8.30
2019-04-29T23:32:15.368Z,8.20
2019-04-29T23:34:45.931Z,8.20
2019-04-29T23:37:19.423Z,8.20
2019-04-29T23:39:48.618Z,8.20
2019-04-29T23:42:19.059Z,8.10
2019-04-29T23:44:49.482Z,8.10
2019-04-29T23:47:19.908Z,8.20
2019-04-29T23:49:50.511Z,8.20
2019-04-29T23:52:21.134Z,8.20
2019-04-29T23:54:51.599Z,8.20
2019-04-29T23:57:45.846Z,8.10
